sensor_id;sensor_type;location;lat;lon;timestamp;pressure;altitude;pressure_sealevel;temperature;humidity
57801;BME280;43627;42.728;23.256;2022-08-03T00:00:21;95014.97;;;18.06;92.57
57801;BME280;43627;42.728;23.256;2022-08-03T00:02:49;95012.00;;;18.04;91.99
57801;BME280;43627;42.728;23.256;2022-08-03T00:05:16;95019.78;;;17.99;93.37
57801;BME280;43627;42.728;23.256;2022-08-03T00:07:43;95006.25;;;18.02;92.90
57801;BME280;43627;42.728;23.256;2022-08-03T00:10:10;95016.53;;;17.95;94.23
57801;BME280;43627;42.728;23.256;2022-08-03T00:12:37;95013.78;;;17.90;94.20
57801;BME280;43627;42.728;23.256;2022-08-03T00:15:05;95009.59;;;17.83;93.31
57801;BME280;43627;42.728;23.256;2022-08-03T00:17:42;95013.09;;;17.84;90.17
57801;BME280;43627;42.728;23.256;2022-08-03T00:20:22;95009.09;;;17.79;90.01
57801;BME280;43627;42.728;23.256;2022-08-03T00:22:49;95008.63;;;17.75;90.57
57801;BME280;43627;42.728;23.256;2022-08-03T00:25:16;95016.59;;;17.79;91.28
57801;BME280;43627;42.728;23.256;2022-08-03T00:27:43;95011.88;;;17.74;92.17
57801;BME280;43627;42.728;23.256;2022-08-03T00:30:10;95006.59;;;17.76;92.76
57801;BME280;43627;42.728;23.256;2022-08-03T00:32:36;95015.91;;;17.73;95.33
57801;BME280;43627;42.728;23.256;2022-08-03T00:35:10;95011.13;;;17.73;95.61
57801;BME280;43627;42.728;23.256;2022-08-03T00:37:55;95012.13;;;17.76;94.83
57801;BME280;43627;42.728;23.256;2022-08-03T00:40:21;95011.09;;;17.79;94.33
57801;BME280;43627;42.728;23.256;2022-08-03T00:42:53;95004.31;;;17.80;95.54
57801;BME280;43627;42.728;23.256;2022-08-03T00:45:28;95014.31;;;17.88;93.88
57801;BME280;43627;42.728;23.256;2022-08-03T00:47:55;95010.34;;;17.84;92.55
57801;BME280;43627;42.728;23.256;2022-08-03T00:50:24;94994.59;;;17.73;95.69
57801;BME280;43627;42.728;23.256;2022-08-03T00:52:52;95002.84;;;17.67;96.16
57801;BME280;43627;42.728;23.256;2022-08-03T00:55:20;95003.63;;;17.62;97.35
57801;BME280;43627;42.728;23.256;2022-08-03T00:57:47;95011.91;;;17.62;96.18
57801;BME280;43627;42.728;23.256;2022-08-03T01:00:16;95016.91;;;17.58;93.26
57801;BME280;43627;42.728;23.256;2022-08-03T01:02:44;95014.66;;;17.57;93.04
57801;BME280;43627;42.728;23.256;2022-08-03T01:05:10;95012.94;;;17.48;93.81
57801;BME280;43627;42.728;23.256;2022-08-03T01:10:44;95007.19;;;17.40;98.49
57801;BME280;43627;42.728;23.256;2022-08-03T01:17:31;95003.75;;;17.18;100.00
57801;BME280;43627;42.728;23.256;2022-08-03T01:20:17;94998.50;;;17.08;100.00
57801;BME280;43627;42.728;23.256;2022-08-03T01:29:03;95004.81;;;16.81;98.06
57801;BME280;43627;42.728;23.256;2022-08-03T01:31:40;95000.03;;;16.76;99.70
57801;BME280;43627;42.728;23.256;2022-08-03T01:34:31;94999.56;;;16.77;99.01
57801;BME280;43627;42.728;23.256;2022-08-03T01:37:02;95001.03;;;16.90;100.00
57801;BME280;43627;42.728;23.256;2022-08-03T01:39:31;94999.78;;;16.91;99.06
57801;BME280;43627;42.728;23.256;2022-08-03T01:42:03;95005.78;;;16.95;100.00
57801;BME280;43627;42.728;23.256;2022-08-03T01:44:37;94993.53;;;16.90;99.72
57801;BME280;43627;42.728;23.256;2022-08-03T01:47:05;95006.81;;;16.97;100.00
57801;BME280;43627;42.728;23.256;2022-08-03T01:49:37;95012.03;;;16.95;100.00
57801;BME280;43627;42.728;23.256;2022-08-03T01:52:06;95010.28;;;16.92;100.00
57801;BME280;43627;42.728;23.256;2022-08-03T01:54:35;95010.56;;;16.89;100.00
57801;BME280;43627;42.728;23.256;2022-08-03T01:57:03;95010.56;;;16.77;99.26
57801;BME280;43627;42.728;23.256;2022-08-03T01:59:33;95006.56;;;16.73;100.00
57801;BME280;43627;42.728;23.256;2022-08-03T02:02:02;95002.25;;;16.66;100.00
57801;BME280;43627;42.728;23.256;2022-08-03T02:04:51;95000.53;;;16.63;100.00
57801;BME280;43627;42.728;23.256;2022-08-03T02:07:19;95005.53;;;16.59;100.00
57801;BME280;43627;42.728;23.256;2022-08-03T02:09:50;95006.53;;;16.50;100.00
57801;BME280;43627;42.728;23.256;2022-08-03T02:12:17;95003.28;;;16.52;100.00
57801;BME280;43627;42.728;23.256;2022-08-03T02:14:46;95007.28;;;16.51;100.00
57801;BME280;43627;42.728;23.256;2022-08-03T02:17:13;95002.75;;;16.48;100.00
57801;BME280;43627;42.728;23.256;2022-08-03T02:19:44;95001.28;;;16.41;100.00
57801;BME280;43627;42.728;23.256;2022-08-03T02:22:12;95007.25;;;16.34;100.00
57801;BME280;43627;42.728;23.256;2022-08-03T02:24:41;95006.00;;;16.35;100.00
57801;BME280;43627;42.728;23.256;2022-08-03T02:27:21;95001.50;;;16.38;100.00
57801;BME280;43627;42.728;23.256;2022-08-03T02:29:52;95006.25;;;16.37;100.00
57801;BME280;43627;42.728;23.256;2022-08-03T02:32:24;95006.25;;;16.37;100.00
57801;BME280;43627;42.728;23.256;2022-08-03T02:34:57;95004.03;;;16.41;100.00
57801;BME280;43627;42.728;23.256;2022-08-03T02:37:29;94993.50;;;16.45;100.00
57801;BME280;43627;42.728;23.256;2022-08-03T02:40:00;94998.53;;;16.41;100.00
57801;BME280;43627;42.728;23.256;2022-08-03T02:42:28;94998.75;;;16.43;100.00
57801;BME280;43627;42.728;23.256;2022-08-03T02:44:57;95003.03;;;16.44;100.00
57801;BME280;43627;42.728;23.256;2022-08-03T02:47:27;94998.00;;;16.48;100.00
57801;BME280;43627;42.728;23.256;2022-08-03T02:50:15;95004.28;;;16.43;100.00
57801;BME280;43627;42.728;23.256;2022-08-03T02:52:45;94995.75;;;16.47;100.00
57801;BME280;43627;42.728;23.256;2022-08-03T02:55:14;94997.75;;;16.46;100.00
57801;BME280;43627;42.728;23.256;2022-08-03T02:57:43;95004.50;;;16.45;100.00
57801;BME280;43627;42.728;23.256;2022-08-03T03:00:12;95008.25;;;16.48;100.00
57801;BME280;43627;42.728;23.256;2022-08-03T03:02:53;95006.28;;;16.43;100.00
57801;BME280;43627;42.728;23.256;2022-08-03T03:05:21;95013.53;;;16.51;100.00
57801;BME280;43627;42.728;23.256;2022-08-03T03:08:09;95024.78;;;16.48;100.00
57801;BME280;43627;42.728;23.256;2022-08-03T03:10:46;95019.03;;;16.40;100.00
57801;BME280;43627;42.728;23.256;2022-08-03T03:13:14;95017.53;;;16.34;100.00
57801;BME280;43627;42.728;23.256;2022-08-03T03:15:43;95022.50;;;16.24;100.00
57801;BME280;43627;42.728;23.256;2022-08-03T03:18:11;95015.75;;;16.14;100.00
57801;BME280;43627;42.728;23.256;2022-08-03T03:20:38;95029.69;;;15.99;100.00
57801;BME280;43627;42.728;23.256;2022-08-03T03:23:07;95035.69;;;15.92;100.00
57801;BME280;43627;42.728;23.256;2022-08-03T03:25:35;95024.63;;;15.75;100.00
57801;BME280;43627;42.728;23.256;2022-08-03T03:28:02;95030.34;;;15.71;100.00
57801;BME280;43627;42.728;23.256;2022-08-03T03:30:32;95031.09;;;15.72;100.00
57801;BME280;43627;42.728;23.256;2022-08-03T03:32:59;95034.88;;;15.75;100.00
57801;BME280;43627;42.728;23.256;2022-08-03T03:35:26;95038.91;;;15.85;100.00
57801;BME280;43627;42.728;23.256;2022-08-03T03:37:53;95025.66;;;15.89;100.00
57801;BME280;43627;42.728;23.256;2022-08-03T03:40:21;95036.66;;;15.89;100.00
57801;BME280;43627;42.728;23.256;2022-08-03T03:42:48;95033.94;;;16.00;100.00
57801;BME280;43627;42.728;23.256;2022-08-03T03:45:15;95044.97;;;16.06;100.00
57801;BME280;43627;42.728;23.256;2022-08-03T03:47:43;95050.00;;;16.13;100.00
57801;BME280;43627;42.728;23.256;2022-08-03T03:50:10;95045.22;;;16.08;100.00
57801;BME280;43627;42.728;23.256;2022-08-03T03:52:37;95055.75;;;16.15;100.00
57801;BME280;43627;42.728;23.256;2022-08-03T03:55:04;95063.53;;;16.22;100.00
57801;BME280;43627;42.728;23.256;2022-08-03T03:57:30;95064.78;;;16.32;100.00
57801;BME280;43627;42.728;23.256;2022-08-03T03:59:57;95050.31;;;16.43;100.00
57801;BME280;43627;42.728;23.256;2022-08-03T04:02:24;95051.31;;;16.51;100.00
57801;BME280;43627;42.728;23.256;2022-08-03T04:04:50;95050.28;;;16.48;100.00
57801;BME280;43627;42.728;23.256;2022-08-03T04:07:50;95046.53;;;16.46;100.00
57801;BME280;43627;42.728;23.256;2022-08-03T04:10:40;95051.06;;;16.54;100.00
57801;BME280;43627;42.728;23.256;2022-08-03T04:13:28;95044.81;;;16.60;100.00
57801;BME280;43627;42.728;23.256;2022-08-03T04:15:58;95059.34;;;16.77;100.00
57801;BME280;43627;42.728;23.256;2022-08-03T04:18:26;95052.09;;;16.85;99.89
57801;BME280;43627;42.728;23.256;2022-08-03T04:20:55;95053.13;;;16.99;98.72
57801;BME280;43627;42.728;23.256;2022-08-03T04:23:26;95048.84;;;17.03;96.63
57801;BME280;43627;42.728;23.256;2022-08-03T04:25:55;95046.81;;;17.21;96.06
57801;BME280;43627;42.728;23.256;2022-08-03T04:28:23;95057.81;;;17.37;95.22
57801;BME280;43627;42.728;23.256;2022-08-03T04:30:58;95055.31;;;17.39;93.84
57801;BME280;43627;42.728;23.256;2022-08-03T04:33:26;95047.53;;;17.49;93.55
57801;BME280;43627;42.728;23.256;2022-08-03T04:35:58;95037.94;;;17.61;93.86
57801;BME280;43627;42.728;23.256;2022-08-03T04:38:30;95044.72;;;17.66;94.54
57801;BME280;43627;42.728;23.256;2022-08-03T04:40:59;95058.91;;;17.98;92.55
57801;BME280;43627;42.728;23.256;2022-08-03T04:43:26;95050.16;;;18.82;86.59
57801;BME280;43627;42.728;23.256;2022-08-03T04:45:55;95054.16;;;20.27;76.67
57801;BME280;43627;42.728;23.256;2022-08-03T04:48:22;95070.34;;;21.44;67.89
57801;BME280;43627;42.728;23.256;2022-08-03T04:50:50;95056.31;;;22.76;60.73
57801;BME280;43627;42.728;23.256;2022-08-03T04:53:17;95072.63;;;23.84;54.98
57801;BME280;43627;42.728;23.256;2022-08-03T04:55:45;95080.22;;;24.12;52.47
57801;BME280;43627;42.728;23.256;2022-08-03T04:58:12;95074.66;;;24.48;51.96
57801;BME280;43627;42.728;23.256;2022-08-03T05:00:38;95072.81;;;25.25;49.10
57801;BME280;43627;42.728;23.256;2022-08-03T05:03:05;95084.72;;;25.64;47.91
57801;BME280;43627;42.728;23.256;2022-08-03T05:05:53;95088.25;;;25.49;47.43
57801;BME280;43627;42.728;23.256;2022-08-03T05:08:35;95092.69;;;25.68;46.81
57801;BME280;43627;42.728;23.256;2022-08-03T05:11:12;95081.44;;;24.76;48.39
57801;BME280;43627;42.728;23.256;2022-08-03T05:13:38;95094.69;;;24.98;48.70
57801;BME280;43627;42.728;23.256;2022-08-03T05:16:05;95086.81;;;24.66;48.96
57801;BME280;43627;42.728;23.256;2022-08-03T05:18:32;95086.44;;;24.70;50.07
57801;BME280;43627;42.728;23.256;2022-08-03T05:20:59;95089.47;;;24.87;50.34
57801;BME280;43627;42.728;23.256;2022-08-03T05:23:25;95090.56;;;24.84;50.06
57801;BME280;43627;42.728;23.256;2022-08-03T05:25:52;95106.06;;;25.08;48.63
57801;BME280;43627;42.728;23.256;2022-08-03T05:28:19;95105.91;;;24.55;49.88
57801;BME280;43627;42.728;23.256;2022-08-03T05:30:45;95102.69;;;24.43;50.39
57801;BME280;43627;42.728;23.256;2022-08-03T05:33:12;95096.25;;;24.63;50.09
57801;BME280;43627;42.728;23.256;2022-08-03T05:35:39;95101.31;;;24.80;50.11
57801;BME280;43627;42.728;23.256;2022-08-03T05:38:26;95107.09;;;24.74;49.24
57801;BME280;43627;42.728;23.256;2022-08-03T05:41:03;95106.97;;;24.95;49.13
57801;BME280;43627;42.728;23.256;2022-08-03T05:43:48;95106.91;;;24.80;49.84
57801;BME280;43627;42.728;23.256;2022-08-03T05:46:15;95103.94;;;24.78;49.68
57801;BME280;43627;42.728;23.256;2022-08-03T05:48:42;95092.03;;;24.77;49.22
57801;BME280;43627;42.728;23.256;2022-08-03T05:51:09;95110.53;;;25.03;48.83
57801;BME280;43627;42.728;23.256;2022-08-03T05:53:40;95111.03;;;24.87;49.49
57801;BME280;43627;42.728;23.256;2022-08-03T05:56:08;95116.53;;;24.64;49.57
57801;BME280;43627;42.728;23.256;2022-08-03T05:58:42;95105.69;;;24.45;50.77
57801;BME280;43627;42.728;23.256;2022-08-03T06:01:09;95101.09;;;24.27;51.25
57801;BME280;43627;42.728;23.256;2022-08-03T06:03:36;95108.09;;;24.48;50.46
57801;BME280;43627;42.728;23.256;2022-08-03T06:06:03;95113.53;;;24.26;51.34
57801;BME280;43627;42.728;23.256;2022-08-03T06:08:29;95118.91;;;24.23;51.71
57801;BME280;43627;42.728;23.256;2022-08-03T06:10:56;95119.09;;;24.26;51.25
57801;BME280;43627;42.728;23.256;2022-08-03T06:13:23;95119.06;;;24.46;51.06
57801;BME280;43627;42.728;23.256;2022-08-03T06:15:49;95119.50;;;24.66;50.80
57801;BME280;43627;42.728;23.256;2022-08-03T06:18:16;95121.34;;;24.56;49.97
57801;BME280;43627;42.728;23.256;2022-08-03T06:20:43;95123.78;;;24.67;49.33
57801;BME280;43627;42.728;23.256;2022-08-03T06:23:12;95119.47;;;24.58;49.06
57801;BME280;43627;42.728;23.256;2022-08-03T06:25:43;95118.00;;;24.57;50.32
57801;BME280;43627;42.728;23.256;2022-08-03T06:28:10;95126.47;;;24.88;49.38
57801;BME280;43627;42.728;23.256;2022-08-03T06:30:59;95110.09;;;24.84;49.25
57801;BME280;43627;42.728;23.256;2022-08-03T06:33:26;95123.75;;;25.03;48.57
57801;BME280;43627;42.728;23.256;2022-08-03T06:36:13;95129.91;;;25.17;48.56
57801;BME280;43627;42.728;23.256;2022-08-03T06:38:40;95123.75;;;25.18;47.72
57801;BME280;43627;42.728;23.256;2022-08-03T06:41:07;95127.28;;;25.03;48.62
57801;BME280;43627;42.728;23.256;2022-08-03T06:43:33;95119.31;;;25.15;49.00
57801;BME280;43627;42.728;23.256;2022-08-03T06:46:03;95109.06;;;25.02;48.27
57801;BME280;43627;42.728;23.256;2022-08-03T06:48:31;95118.75;;;25.24;48.49
57801;BME280;43627;42.728;23.256;2022-08-03T06:50:58;95119.22;;;25.00;47.93
57801;BME280;43627;42.728;23.256;2022-08-03T06:53:24;95108.16;;;25.23;47.83
57801;BME280;43627;42.728;23.256;2022-08-03T06:55:51;95112.84;;;25.58;45.84
57801;BME280;43627;42.728;23.256;2022-08-03T06:58:20;95107.78;;;25.57;47.95
57801;BME280;43627;42.728;23.256;2022-08-03T07:00:47;95115.06;;;25.83;46.44
57801;BME280;43627;42.728;23.256;2022-08-03T07:03:14;95116.34;;;26.05;46.49
57801;BME280;43627;42.728;23.256;2022-08-03T07:05:41;95117.47;;;25.94;44.58
57801;BME280;43627;42.728;23.256;2022-08-03T07:08:08;95120.84;;;25.85;45.31
57801;BME280;43627;42.728;23.256;2022-08-03T07:10:35;95107.44;;;25.83;46.22
57801;BME280;43627;42.728;23.256;2022-08-03T07:13:03;95110.41;;;25.32;46.58
57801;BME280;43627;42.728;23.256;2022-08-03T07:15:30;95118.19;;;25.49;47.17
57801;BME280;43627;42.728;23.256;2022-08-03T07:18:17;95111.34;;;25.73;46.70
57801;BME280;43627;42.728;23.256;2022-08-03T07:20:55;95119.88;;;26.05;45.59
57801;BME280;43627;42.728;23.256;2022-08-03T07:23:21;95112.44;;;26.15;45.27
57801;BME280;43627;42.728;23.256;2022-08-03T07:25:48;95115.25;;;25.85;45.29
57801;BME280;43627;42.728;23.256;2022-08-03T07:28:16;95108.19;;;25.84;45.57
57801;BME280;43627;42.728;23.256;2022-08-03T07:30:43;95116.16;;;26.10;45.06
57801;BME280;43627;42.728;23.256;2022-08-03T07:33:10;95112.84;;;25.89;45.27
57801;BME280;43627;42.728;23.256;2022-08-03T07:35:36;95122.88;;;26.00;46.08
57801;BME280;43627;42.728;23.256;2022-08-03T07:38:03;95116.31;;;26.20;44.56
57801;BME280;43627;42.728;23.256;2022-08-03T07:40:30;95122.63;;;26.28;44.70
57801;BME280;43627;42.728;23.256;2022-08-03T07:42:58;95103.03;;;26.43;43.59
57801;BME280;43627;42.728;23.256;2022-08-03T07:45:24;95115.28;;;26.63;43.59
57801;BME280;43627;42.728;23.256;2022-08-03T07:47:52;95117.06;;;26.84;42.45
57801;BME280;43627;42.728;23.256;2022-08-03T07:50:20;95112.22;;;27.17;42.85
57801;BME280;43627;42.728;23.256;2022-08-03T07:52:47;95123.88;;;26.98;42.31
57801;BME280;43627;42.728;23.256;2022-08-03T07:55:20;95119.41;;;27.02;43.41
57801;BME280;43627;42.728;23.256;2022-08-03T07:57:58;95122.22;;;26.95;42.27
57801;BME280;43627;42.728;23.256;2022-08-03T08:00:25;95118.63;;;27.02;42.69
57801;BME280;43627;42.728;23.256;2022-08-03T08:02:51;95133.00;;;27.06;43.15
57801;BME280;43627;42.728;23.256;2022-08-03T08:05:18;95109.28;;;27.07;42.88
57801;BME280;43627;42.728;23.256;2022-08-03T08:07:45;95113.09;;;27.52;42.53
57801;BME280;43627;42.728;23.256;2022-08-03T08:10:17;95115.28;;;27.61;41.53
57801;BME280;43627;42.728;23.256;2022-08-03T08:12:44;95114.59;;;27.53;41.37
57801;BME280;43627;42.728;23.256;2022-08-03T08:15:11;95122.09;;;27.50;41.33
57801;BME280;43627;42.728;23.256;2022-08-03T08:17:45;95130.44;;;27.58;41.07
57801;BME280;43627;42.728;23.256;2022-08-03T08:20:20;95125.47;;;27.49;41.52
57801;BME280;43627;42.728;23.256;2022-08-03T08:22:55;95125.06;;;27.77;41.36
57801;BME280;43627;42.728;23.256;2022-08-03T08:25:24;95113.50;;;27.98;39.67
57801;BME280;43627;42.728;23.256;2022-08-03T08:27:51;95119.69;;;28.14;39.58
57801;BME280;43627;42.728;23.256;2022-08-03T08:30:38;95121.03;;;28.30;39.64
57801;BME280;43627;42.728;23.256;2022-08-03T08:33:05;95116.47;;;28.69;38.24
57801;BME280;43627;42.728;23.256;2022-08-03T08:35:31;95112.59;;;28.82;37.67
57801;BME280;43627;42.728;23.256;2022-08-03T08:37:59;95124.56;;;29.00;37.33
57801;BME280;43627;42.728;23.256;2022-08-03T08:40:31;95111.72;;;28.62;38.84
57801;BME280;43627;42.728;23.256;2022-08-03T08:42:58;95108.13;;;28.79;38.99
57801;BME280;43627;42.728;23.256;2022-08-03T08:45:25;95110.56;;;28.31;38.72
57801;BME280;43627;42.728;23.256;2022-08-03T08:47:54;95107.41;;;28.27;38.84
57801;BME280;43627;42.728;23.256;2022-08-03T08:50:28;95096.47;;;28.38;37.89
57801;BME280;43627;42.728;23.256;2022-08-03T08:52:59;95098.28;;;28.43;37.82
57801;BME280;43627;42.728;23.256;2022-08-03T08:55:25;95109.69;;;27.86;37.18
57801;BME280;43627;42.728;23.256;2022-08-03T08:57:58;95097.13;;;28.29;36.41
57801;BME280;43627;42.728;23.256;2022-08-03T09:00:27;95092.84;;;28.45;35.80
57801;BME280;43627;42.728;23.256;2022-08-03T09:02:53;95097.09;;;28.64;34.85
57801;BME280;43627;42.728;23.256;2022-08-03T09:05:20;95097.56;;;28.70;33.65
57801;BME280;43627;42.728;23.256;2022-08-03T09:08:06;95092.75;;;28.80;33.26
57801;BME280;43627;42.728;23.256;2022-08-03T09:10:34;95096.06;;;28.86;34.03
57801;BME280;43627;42.728;23.256;2022-08-03T09:13:01;95092.78;;;29.34;33.14
57801;BME280;43627;42.728;23.256;2022-08-03T09:15:30;95088.38;;;29.68;34.36
57801;BME280;43627;42.728;23.256;2022-08-03T09:17:59;95086.47;;;29.80;32.33
57801;BME280;43627;42.728;23.256;2022-08-03T09:20:29;95094.75;;;29.78;32.53
57801;BME280;43627;42.728;23.256;2022-08-03T09:25:57;95089.78;;;30.05;31.68
57801;BME280;43627;42.728;23.256;2022-08-03T09:28:33;95096.78;;;30.14;31.40
57801;BME280;43627;42.728;23.256;2022-08-03T09:31:32;95088.41;;;29.87;31.67
57801;BME280;43627;42.728;23.256;2022-08-03T09:34:07;95089.97;;;30.07;31.15
57801;BME280;43627;42.728;23.256;2022-08-03T09:39:02;95093.66;;;30.20;31.83
57801;BME280;43627;42.728;23.256;2022-08-03T09:41:32;95089.97;;;30.36;30.79
57801;BME280;43627;42.728;23.256;2022-08-03T09:43:59;95096.63;;;30.22;31.01
57801;BME280;43627;42.728;23.256;2022-08-03T09:46:26;95095.28;;;30.13;32.59
57801;BME280;43627;42.728;23.256;2022-08-03T09:49:12;95085.56;;;29.68;33.24
57801;BME280;43627;42.728;23.256;2022-08-03T09:51:39;95089.94;;;29.51;33.78
57801;BME280;43627;42.728;23.256;2022-08-03T09:54:27;95092.03;;;30.17;32.63
57801;BME280;43627;42.728;23.256;2022-08-03T09:56:55;95090.94;;;30.02;32.88
57801;BME280;43627;42.728;23.256;2022-08-03T09:59:30;95087.91;;;29.62;33.53
57801;BME280;43627;42.728;23.256;2022-08-03T10:01:57;95082.78;;;29.77;33.72
57801;BME280;43627;42.728;23.256;2022-08-03T10:04:25;95086.28;;;30.14;32.63
57801;BME280;43627;42.728;23.256;2022-08-03T10:07:07;95084.06;;;30.32;33.23
57801;BME280;43627;42.728;23.256;2022-08-03T10:09:35;95070.16;;;30.25;32.56
57801;BME280;43627;42.728;23.256;2022-08-03T10:12:10;95068.94;;;30.57;31.59
57801;BME280;43627;42.728;23.256;2022-08-03T10:14:41;95066.72;;;30.55;31.97
57801;BME280;43627;42.728;23.256;2022-08-03T10:17:09;95068.22;;;30.66;32.42
57801;BME280;43627;42.728;23.256;2022-08-03T10:19:36;95066.75;;;30.65;32.04
57801;BME280;43627;42.728;23.256;2022-08-03T10:22:10;95057.56;;;30.16;32.72
57801;BME280;43627;42.728;23.256;2022-08-03T10:24:39;95068.44;;;29.93;32.95
57801;BME280;43627;42.728;23.256;2022-08-03T10:27:10;95075.91;;;29.51;34.39
57801;BME280;43627;42.728;23.256;2022-08-03T10:29:42;95063.88;;;28.87;34.92
57801;BME280;43627;42.728;23.256;2022-08-03T10:33:14;95060.22;;;28.67;34.62
57801;BME280;43627;42.728;23.256;2022-08-03T10:35:20;95061.44;;;28.74;34.50
57801;BME280;43627;42.728;23.256;2022-08-03T10:37:55;95064.41;;;28.76;35.63
57801;BME280;43627;42.728;23.256;2022-08-03T10:40:27;95071.19;;;28.73;34.99
57801;BME280;43627;42.728;23.256;2022-08-03T10:43:25;95057.31;;;28.75;34.91
57801;BME280;43627;42.728;23.256;2022-08-03T10:45:54;95053.31;;;28.78;35.45
57801;BME280;43627;42.728;23.256;2022-08-03T10:48:21;95056.13;;;29.69;34.83
57801;BME280;43627;42.728;23.256;2022-08-03T10:50:48;95045.38;;;29.38;32.96
57801;BME280;43627;42.728;23.256;2022-08-03T10:53:33;95059.00;;;29.15;33.76
57801;BME280;43627;42.728;23.256;2022-08-03T10:56:01;95049.06;;;29.41;33.69
57801;BME280;43627;42.728;23.256;2022-08-03T10:59:06;95036.34;;;28.76;34.59
57801;BME280;43627;42.728;23.256;2022-08-03T11:01:55;95047.78;;;28.88;34.45
57801;BME280;43627;42.728;23.256;2022-08-03T11:04:24;95039.88;;;28.77;34.41
57801;BME280;43627;42.728;23.256;2022-08-03T11:07:17;95047.13;;;28.80;34.98
57801;BME280;43627;42.728;23.256;2022-08-03T11:09:46;95045.72;;;29.15;34.07
57801;BME280;43627;42.728;23.256;2022-08-03T11:12:28;95039.94;;;29.13;34.05
57801;BME280;43627;42.728;23.256;2022-08-03T11:15:04;95027.94;;;29.40;34.01
57801;BME280;43627;42.728;23.256;2022-08-03T11:17:32;95031.63;;;29.42;33.50
57801;BME280;43627;42.728;23.256;2022-08-03T11:20:43;95033.97;;;29.36;33.19
57801;BME280;43627;42.728;23.256;2022-08-03T11:23:10;95034.78;;;29.56;32.83
57801;BME280;43627;42.728;23.256;2022-08-03T11:28:42;95029.72;;;30.20;32.73
57801;BME280;43627;42.728;23.256;2022-08-03T11:34:10;95021.69;;;29.68;32.99
57801;BME280;43627;42.728;23.256;2022-08-03T11:39:44;95017.59;;;29.42;33.52
57801;BME280;43627;42.728;23.256;2022-08-03T11:44:52;95008.09;;;30.13;33.15
57801;BME280;43627;42.728;23.256;2022-08-03T11:47:19;95011.81;;;30.16;32.89
57801;BME280;43627;42.728;23.256;2022-08-03T11:49:49;95016.38;;;30.69;32.98
57801;BME280;43627;42.728;23.256;2022-08-03T11:52:17;95014.44;;;29.94;33.40
57801;BME280;43627;42.728;23.256;2022-08-03T11:54:53;95022.72;;;30.02;33.25
57801;BME280;43627;42.728;23.256;2022-08-03T11:57:33;95021.19;;;29.52;35.11
57801;BME280;43627;42.728;23.256;2022-08-03T12:00:30;95022.84;;;29.75;35.27
57801;BME280;43627;42.728;23.256;2022-08-03T12:05:56;95019.25;;;29.55;33.97
57801;BME280;43627;42.728;23.256;2022-08-03T12:10:52;95011.03;;;29.76;34.27
57801;BME280;43627;42.728;23.256;2022-08-03T12:13:20;95015.97;;;30.24;33.38
57801;BME280;43627;42.728;23.256;2022-08-03T12:16:07;95007.06;;;30.37;33.45
57801;BME280;43627;42.728;23.256;2022-08-03T12:18:34;95009.41;;;29.93;33.77
57801;BME280;43627;42.728;23.256;2022-08-03T12:21:08;95000.44;;;30.13;33.79
57801;BME280;43627;42.728;23.256;2022-08-03T12:23:36;95001.88;;;30.05;33.46
57801;BME280;43627;42.728;23.256;2022-08-03T12:26:08;95007.50;;;29.95;34.05
57801;BME280;43627;42.728;23.256;2022-08-03T12:28:36;95002.75;;;29.22;35.61
57801;BME280;43627;42.728;23.256;2022-08-03T12:31:07;94990.16;;;29.14;35.27
57801;BME280;43627;42.728;23.256;2022-08-03T12:36:24;94985.63;;;28.64;36.65
57801;BME280;43627;42.728;23.256;2022-08-03T12:39:06;94994.22;;;28.05;37.83
57801;BME280;43627;42.728;23.256;2022-08-03T12:41:36;94988.50;;;27.95;37.97
57801;BME280;43627;42.728;23.256;2022-08-03T12:44:07;94989.50;;;28.25;38.03
57801;BME280;43627;42.728;23.256;2022-08-03T12:46:36;94989.88;;;28.56;37.31
57801;BME280;43627;42.728;23.256;2022-08-03T12:49:12;94991.59;;;28.78;37.30
57801;BME280;43627;42.728;23.256;2022-08-03T12:54:18;94988.22;;;29.16;36.81
57801;BME280;43627;42.728;23.256;2022-08-03T12:59:23;94967.38;;;29.56;35.57
57801;BME280;43627;42.728;23.256;2022-08-03T13:02:02;94977.47;;;29.78;34.79
57801;BME280;43627;42.728;23.256;2022-08-03T13:04:35;94967.38;;;29.56;37.46
57801;BME280;43627;42.728;23.256;2022-08-03T13:07:06;94983.56;;;28.92;37.10
57801;BME280;43627;42.728;23.256;2022-08-03T13:09:48;94967.13;;;28.61;37.31
57801;BME280;43627;42.728;23.256;2022-08-03T13:12:17;94967.97;;;28.44;37.23
57801;BME280;43627;42.728;23.256;2022-08-03T13:14:46;94973.22;;;28.23;38.39
57801;BME280;43627;42.728;23.256;2022-08-03T13:17:14;94973.66;;;28.20;38.61
57801;BME280;43627;42.728;23.256;2022-08-03T13:19:42;94961.22;;;28.13;39.25
57801;BME280;43627;42.728;23.256;2022-08-03T13:24:41;94960.59;;;27.87;39.88
57801;BME280;43627;42.728;23.256;2022-08-03T13:27:08;94962.41;;;27.75;40.61
57801;BME280;43627;42.728;23.256;2022-08-03T13:29:55;94962.91;;;27.81;40.10
57801;BME280;43627;42.728;23.256;2022-08-03T13:32:22;94962.81;;;27.72;40.70
57801;BME280;43627;42.728;23.256;2022-08-03T13:34:49;94966.81;;;28.13;40.98
57801;BME280;43627;42.728;23.256;2022-08-03T13:37:15;94967.22;;;28.27;39.83
57801;BME280;43627;42.728;23.256;2022-08-03T13:39:42;94970.22;;;28.11;41.13
57801;BME280;43627;42.728;23.256;2022-08-03T13:42:25;94966.72;;;28.21;40.65
57801;BME280;43627;42.728;23.256;2022-08-03T13:44:52;94959.56;;;28.27;40.75
57801;BME280;43627;42.728;23.256;2022-08-03T13:47:19;94952.03;;;28.47;39.06
57801;BME280;43627;42.728;23.256;2022-08-03T13:49:46;94966.72;;;28.65;38.86
57801;BME280;43627;42.728;23.256;2022-08-03T13:52:26;94960.22;;;28.89;38.85
57801;BME280;43627;42.728;23.256;2022-08-03T13:54:52;94968.31;;;29.22;38.50